Time;durP1;ratioP1;P1;durP2;ratioP2;P2;SDS_P1;SDS_P2;PMS_P1;PMS_P2;Temp;Humidity;BMP_temperature;BMP_pressure;BME280_temperature;BME280_humidity;BME280_pressure;Samples;Min_cycle;Max_cycle;Signal;HPM_P1;HPM_P2
2023/08/25 00:01:57;;;;;;;8.48;5.57;;;;;;;;;;5075758;28;20025;-87
2023/08/25 00:04:23;;;;;;;12.80;6.22;;;;;;;;;;5078310;28;20043;-92
2023/08/25 00:06:49;;;;;;;13.23;6.20;;;;;;;;;;5077514;28;20067;-91
2023/08/25 00:09:15;;;;;;;7.55;5.65;;;;;;;;;;5077605;28;20040;-88
2023/08/25 00:11:41;;;;;;;11.40;5.90;;;;;;;;;;5077899;28;20093;-91
2023/08/25 00:14:07;;;;;;;12.35;7.35;;;;;;;;;;5095050;28;20024;-88
2023/08/25 00:16:33;;;;;;;13.90;7.10;;;;;;;;;;5087247;28;20092;-89
2023/08/25 00:18:59;;;;;;;11.65;7.05;;;;;;;;;;5079631;28;20028;-88
2023/08/25 00:21:25;;;;;;;12.45;7.40;;;;;;;;;;5076951;28;20062;-87
2023/08/25 00:23:51;;;;;;;10.88;7.05;;;;;;;;;;5093337;28;20063;-89
2023/08/25 00:26:20;;;;;;;10.75;6.95;;;;;;;;;;5095377;28;20055;-89
2023/08/25 00:28:46;;;;;;;15.65;6.80;;;;;;;;;;5075489;28;20106;-89
2023/08/25 00:31:14;;;;;;;13.95;6.57;;;;;;;;;;5095903;28;20032;-89
2023/08/25 00:33:48;;;;;;;15.75;6.78;;;;;;;;;;5077114;28;20460;-87
2023/08/25 00:36:14;;;;;;;10.23;6.35;;;;;;;;;;5079982;28;20024;-87
2023/08/25 00:38:39;;;;;;;11.82;6.70;;;;;;;;;;5074409;28;20034;-91
2023/08/25 00:41:05;;;;;;;9.65;5.55;;;;;;;;;;5074442;28;20043;-88
2023/08/25 00:43:33;;;;;;;7.75;5.28;;;;;;;;;;5077367;28;20404;-88
2023/08/25 00:45:59;;;;;;;12.38;5.60;;;;;;;;;;5080093;28;20039;-89
2023/08/25 00:48:28;;;;;;;8.07;5.10;;;;;;;;;;5094254;28;20035;-88
2023/08/25 00:50:57;;;;;;;13.05;5.35;;;;;;;;;;5093757;28;20024;-92
2023/08/25 00:53:23;;;;;;;11.82;5.63;;;;;;;;;;5076428;28;20031;-87
2023/08/25 00:55:50;;;;;;;10.13;4.57;;;;;;;;;;5074329;28;20109;-91
2023/08/25 00:58:17;;;;;;;12.90;5.60;;;;;;;;;;5077181;28;20031;-90
2023/08/25 01:00:47;;;;;;;13.05;5.88;;;;;;;;;;5076116;28;20028;-89
2023/08/25 01:03:13;;;;;;;12.38;5.57;;;;;;;;;;5096807;28;20020;-88
2023/08/25 01:05:39;;;;;;;6.07;4.03;;;;;;;;;;5094170;28;20031;-90
2023/08/25 01:08:08;;;;;;;12.80;5.05;;;;;;;;;;5078628;28;20505;-89
2023/08/25 01:10:43;;;;;;;8.20;4.35;;;;;;;;;;5073787;28;20096;-90
2023/08/25 01:13:17;;;;;;;14.10;5.07;;;;;;;;;;5075792;28;20032;-88
2023/08/25 01:15:45;;;;;;;8.30;4.53;;;;;;;;;;5078722;28;20029;-90
2023/08/25 01:18:23;;;;;;;9.50;4.53;;;;;;;;;;5073849;28;20059;-88
2023/08/25 01:20:49;;;;;;;10.35;4.35;;;;;;;;;;5077596;28;20364;-88
2023/08/25 01:23:46;;;;;;;9.60;4.15;;;;;;;;;;5076700;28;20023;-90
2023/08/25 01:26:16;;;;;;;11.40;4.07;;;;;;;;;;5060069;28;20105;-86
2023/08/25 01:28:42;;;;;;;9.43;3.17;;;;;;;;;;5093602;28;20032;-88
2023/08/25 01:31:12;;;;;;;7.95;3.85;;;;;;;;;;5097576;28;20019;-91
2023/08/25 01:33:44;;;;;;;8.02;3.75;;;;;;;;;;5093071;28;20082;-89
2023/08/25 01:36:12;;;;;;;7.72;3.33;;;;;;;;;;5073002;28;20034;-91
2023/08/25 01:38:57;;;;;;;6.35;3.72;;;;;;;;;;5074394;28;20440;-89
2023/08/25 01:41:27;;;;;;;9.82;3.78;;;;;;;;;;5076368;28;20028;-88
2023/08/25 01:43:53;;;;;;;11.20;4.70;;;;;;;;;;5074826;28;20092;-86
2023/08/25 01:46:22;;;;;;;13.73;3.85;;;;;;;;;;5075852;28;20036;-90
2023/08/25 01:48:50;;;;;;;5.93;3.38;;;;;;;;;;5094865;28;20103;-90
2023/08/25 01:51:16;;;;;;;10.00;3.97;;;;;;;;;;5073925;28;20051;-89
2023/08/25 01:53:43;;;;;;;7.22;3.45;;;;;;;;;;5076318;28;20085;-89
2023/08/25 01:56:09;;;;;;;11.52;3.58;;;;;;;;;;5076279;28;20126;-90
2023/08/25 01:58:35;;;;;;;7.22;4.07;;;;;;;;;;5075212;28;20111;-86
2023/08/25 02:01:02;;;;;;;7.80;4.30;;;;;;;;;;5073345;28;20538;-88
2023/08/25 02:03:28;;;;;;;6.97;4.43;;;;;;;;;;5092834;28;20769;-89
2023/08/25 02:05:53;;;;;;;8.93;4.65;;;;;;;;;;5077460;28;20047;-91
2023/08/25 02:08:19;;;;;;;6.85;4.63;;;;;;;;;;5075190;28;20066;-87
2023/08/25 02:10:45;;;;;;;8.10;5.05;;;;;;;;;;5094303;28;20876;-92
2023/08/25 02:13:15;;;;;;;7.18;4.97;;;;;;;;;;5090137;28;20059;-89
2023/08/25 02:15:48;;;;;;;9.05;5.03;;;;;;;;;;5095663;28;20066;-89
2023/08/25 02:18:14;;;;;;;6.68;4.40;;;;;;;;;;5091833;28;20060;-91
2023/08/25 02:20:40;;;;;;;11.80;5.20;;;;;;;;;;5083668;28;20074;-92
2023/08/25 02:23:07;;;;;;;8.85;4.60;;;;;;;;;;5093264;28;20024;-89
2023/08/25 02:25:33;;;;;;;6.38;4.95;;;;;;;;;;5073630;28;20058;-86
2023/08/25 02:28:01;;;;;;;9.50;5.35;;;;;;;;;;5092365;28;20035;-89
2023/08/25 02:30:28;;;;;;;8.52;4.50;;;;;;;;;;5089718;28;20058;-87
2023/08/25 02:32:56;;;;;;;9.45;4.70;;;;;;;;;;5077497;28;20082;-87
2023/08/25 02:35:22;;;;;;;6.75;4.20;;;;;;;;;;5091207;28;20028;-87
2023/08/25 02:37:59;;;;;;;6.70;4.45;;;;;;;;;;5074665;28;20043;-87
2023/08/25 02:40:26;;;;;;;9.25;4.72;;;;;;;;;;5097254;28;20039;-85
2023/08/25 02:42:55;;;;;;;10.35;4.85;;;;;;;;;;5075356;28;20064;-87
2023/08/25 02:45:23;;;;;;;7.25;4.80;;;;;;;;;;5093824;28;20043;-90
2023/08/25 02:47:49;;;;;;;7.05;4.45;;;;;;;;;;5092169;28;20032;-85
2023/08/25 02:50:15;;;;;;;8.30;5.05;;;;;;;;;;5084106;28;20031;-88
2023/08/25 02:52:41;;;;;;;7.40;4.18;;;;;;;;;;5075974;28;20028;-88
2023/08/25 02:55:07;;;;;;;10.98;4.70;;;;;;;;;;5092222;28;20036;-87
2023/08/25 02:57:33;;;;;;;8.38;4.68;;;;;;;;;;5075507;28;20024;-88
2023/08/25 02:59:59;;;;;;;10.43;5.38;;;;;;;;;;5074818;28;20903;-87
2023/08/25 03:02:25;;;;;;;8.98;5.07;;;;;;;;;;5072873;28;20108;-86
2023/08/25 03:04:51;;;;;;;9.00;4.18;;;;;;;;;;5076026;28;20031;-89
2023/08/25 03:07:17;;;;;;;7.15;3.88;;;;;;;;;;5081299;28;20133;-87
2023/08/25 03:09:46;;;;;;;7.57;4.30;;;;;;;;;;5077302;28;20712;-90
2023/08/25 03:12:12;;;;;;;6.72;4.30;;;;;;;;;;5089093;28;20452;-89
2023/08/25 03:14:38;;;;;;;8.48;4.43;;;;;;;;;;5097417;28;20125;-90
2023/08/25 03:17:03;;;;;;;10.20;4.57;;;;;;;;;;5079112;28;20120;-90
2023/08/25 03:19:29;;;;;;;8.75;4.90;;;;;;;;;;5079424;28;20020;-90
2023/08/25 03:21:55;;;;;;;8.50;4.28;;;;;;;;;;5097833;28;21805;-90
2023/08/25 03:24:21;;;;;;;9.68;5.53;;;;;;;;;;5081656;28;20060;-85
2023/08/25 03:26:47;;;;;;;7.00;4.25;;;;;;;;;;5080415;28;20393;-90
2023/08/25 03:29:13;;;;;;;12.80;5.50;;;;;;;;;;5080418;28;20032;-90
2023/08/25 03:31:42;;;;;;;9.88;4.00;;;;;;;;;;5077676;28;20053;-87
2023/08/25 03:34:07;;;;;;;26.52;11.82;;;;;;;;;;5079361;28;20066;-91
2023/08/25 03:36:33;;;;;;;10.07;5.20;;;;;;;;;;5069119;28;20052;-90
2023/08/25 03:38:59;;;;;;;6.65;3.88;;;;;;;;;;5080723;28;20030;-89
2023/08/25 03:41:25;;;;;;;6.60;4.35;;;;;;;;;;5100489;28;20020;-88
2023/08/25 03:43:54;;;;;;;13.10;5.40;;;;;;;;;;5082610;28;20489;-88
2023/08/25 03:46:22;;;;;;;8.23;3.95;;;;;;;;;;5089980;28;20028;-89
2023/08/25 03:48:48;;;;;;;7.35;4.22;;;;;;;;;;5077323;28;20036;-88
2023/08/25 03:51:14;;;;;;;7.32;4.18;;;;;;;;;;5078198;28;20020;-90
2023/08/25 03:53:40;;;;;;;6.57;3.30;;;;;;;;;;5099789;28;20036;-88
2023/08/25 03:56:06;;;;;;;5.60;3.60;;;;;;;;;;5083812;28;20902;-91
2023/08/25 03:58:32;;;;;;;8.38;4.00;;;;;;;;;;5109754;28;20036;-87
2023/08/25 04:00:59;;;;;;;6.82;3.17;;;;;;;;;;5085913;28;20027;-89
2023/08/25 04:03:27;;;;;;;7.88;3.17;;;;;;;;;;5090304;28;20056;-88
2023/08/25 04:05:56;;;;;;;8.13;3.50;;;;;;;;;;5081978;28;20128;-90
2023/08/25 04:08:22;;;;;;;6.40;3.13;;;;;;;;;;5095987;28;20024;-91
2023/08/25 04:10:48;;;;;;;9.13;3.70;;;;;;;;;;5078981;28;20032;-86
2023/08/25 04:13:14;;;;;;;7.00;3.20;;;;;;;;;;5099825;28;20103;-85
2023/08/25 04:15:40;;;;;;;8.13;4.18;;;;;;;;;;5082173;28;20032;-89
2023/08/25 04:18:06;;;;;;;8.82;3.65;;;;;;;;;;5081102;28;20440;-90
2023/08/25 04:20:35;;;;;;;5.55;3.30;;;;;;;;;;5094398;28;20039;-90
2023/08/25 04:23:02;;;;;;;6.65;4.00;;;;;;;;;;5078964;28;20040;-91
2023/08/25 04:25:29;;;;;;;6.38;3.83;;;;;;;;;;5096343;28;20077;-91
2023/08/25 04:27:55;;;;;;;7.60;3.95;;;;;;;;;;5080020;28;20071;-88
2023/08/25 04:30:24;;;;;;;8.00;4.25;;;;;;;;;;5081138;28;20032;-91
2023/08/25 04:32:50;;;;;;;7.53;3.58;;;;;;;;;;5083404;28;20032;-90
2023/08/25 04:35:16;;;;;;;5.18;3.25;;;;;;;;;;5097405;28;20024;-88
2023/08/25 04:37:47;;;;;;;8.65;3.85;;;;;;;;;;5091447;28;20034;-88
2023/08/25 04:40:15;;;;;;;15.32;4.20;;;;;;;;;;5094218;28;20028;-91
2023/08/25 04:42:42;;;;;;;7.07;4.22;;;;;;;;;;5082820;28;20126;-90
2023/08/25 04:45:11;;;;;;;8.13;4.43;;;;;;;;;;5075986;28;20047;-89
2023/08/25 04:47:38;;;;;;;6.60;4.18;;;;;;;;;;5097353;28;20043;-90
2023/08/25 04:50:04;;;;;;;6.15;3.95;;;;;;;;;;5078461;28;20079;-88
2023/08/25 04:52:30;;;;;;;9.63;4.88;;;;;;;;;;5077784;28;20043;-89
2023/08/25 04:54:56;;;;;;;7.82;4.38;;;;;;;;;;5076432;28;20023;-92
2023/08/25 04:57:22;;;;;;;7.90;4.43;;;;;;;;;;5078844;28;20051;-86
2023/08/25 04:59:48;;;;;;;7.72;3.97;;;;;;;;;;5093651;28;20043;-88
2023/08/25 05:02:17;;;;;;;5.75;4.28;;;;;;;;;;5079466;28;20035;-91
2023/08/25 05:04:43;;;;;;;8.00;4.68;;;;;;;;;;5079414;28;20057;-89
2023/08/25 05:07:09;;;;;;;8.52;4.25;;;;;;;;;;5076490;28;20118;-90
2023/08/25 05:09:35;;;;;;;11.50;4.68;;;;;;;;;;5075754;28;20436;-88
2023/08/25 05:12:01;;;;;;;9.90;4.45;;;;;;;;;;5076844;28;20101;-88
2023/08/25 05:14:27;;;;;;;7.72;4.70;;;;;;;;;;5077303;28;20128;-90
2023/08/25 05:16:55;;;;;;;8.52;4.90;;;;;;;;;;5084911;28;20429;-84
2023/08/25 05:19:22;;;;;;;14.45;5.38;;;;;;;;;;5077678;28;20039;-89
2023/08/25 05:21:48;;;;;;;8.57;4.85;;;;;;;;;;5080805;28;20032;-87
2023/08/25 05:24:21;;;;;;;7.03;4.72;;;;;;;;;;5094576;28;20093;-90
2023/08/25 05:26:47;;;;;;;11.02;5.30;;;;;;;;;;5097674;28;20024;-90
2023/08/25 05:29:14;;;;;;;12.75;5.57;;;;;;;;;;5094553;28;20032;-92
2023/08/25 05:31:41;;;;;;;6.18;4.85;;;;;;;;;;5076537;28;20032;-90
2023/08/25 05:34:09;;;;;;;9.38;5.22;;;;;;;;;;5075814;28;20740;-89
2023/08/25 05:36:38;;;;;;;5.82;4.80;;;;;;;;;;5078679;28;20058;-89
2023/08/25 05:39:04;;;;;;;13.23;4.85;;;;;;;;;;5077076;28;20020;-91
2023/08/25 05:41:30;;;;;;;9.68;5.00;;;;;;;;;;5079906;28;20053;-88
2023/08/25 05:43:56;;;;;;;7.13;4.85;;;;;;;;;;5076338;28;20048;-88
2023/08/25 05:46:22;;;;;;;6.70;4.60;;;;;;;;;;5078671;28;20039;-88
2023/08/25 05:48:48;;;;;;;10.25;5.75;;;;;;;;;;5074890;28;20069;-87
2023/08/25 05:51:14;;;;;;;18.60;6.03;;;;;;;;;;5077990;28;20112;-88
2023/08/25 05:53:40;;;;;;;9.18;4.65;;;;;;;;;;5077472;28;20024;-89
2023/08/25 05:56:06;;;;;;;9.95;6.20;;;;;;;;;;5076651;28;20038;-86
2023/08/25 05:58:34;;;;;;;11.93;5.50;;;;;;;;;;5078418;28;20028;-89
2023/08/25 06:01:01;;;;;;;7.40;5.20;;;;;;;;;;5079078;28;20437;-88
2023/08/25 06:03:27;;;;;;;7.93;5.25;;;;;;;;;;5078154;28;20031;-90
2023/08/25 06:05:53;;;;;;;10.25;5.55;;;;;;;;;;5090214;28;21624;-90
2023/08/25 06:08:20;;;;;;;10.75;6.15;;;;;;;;;;5081480;28;20393;-89
2023/08/25 06:10:49;;;;;;;8.82;5.30;;;;;;;;;;5078061;28;20039;-90
2023/08/25 06:13:15;;;;;;;13.45;7.13;;;;;;;;;;5089351;28;20094;-90
2023/08/25 06:15:41;;;;;;;11.68;6.30;;;;;;;;;;5078470;28;20024;-87
2023/08/25 06:18:09;;;;;;;11.00;6.18;;;;;;;;;;5093855;28;20103;-89
2023/08/25 06:20:35;;;;;;;13.02;6.65;;;;;;;;;;5089386;28;20034;-88
2023/08/25 06:23:01;;;;;;;9.43;6.78;;;;;;;;;;5078985;28;20031;-88
2023/08/25 06:25:27;;;;;;;10.45;7.55;;;;;;;;;;5082568;28;20024;-88
2023/08/25 06:27:55;;;;;;;12.02;7.93;;;;;;;;;;5084441;28;20387;-86
2023/08/25 06:30:21;;;;;;;12.52;7.82;;;;;;;;;;5082614;28;20020;-90
2023/08/25 06:32:47;;;;;;;11.43;6.72;;;;;;;;;;5082890;28;20448;-86
2023/08/25 06:35:13;;;;;;;10.23;6.40;;;;;;;;;;5078725;28;20103;-86
2023/08/25 06:37:40;;;;;;;12.02;7.13;;;;;;;;;;5079333;28;20024;-87
2023/08/25 06:40:07;;;;;;;14.48;7.82;;;;;;;;;;5081916;28;20032;-88
2023/08/25 06:42:33;;;;;;;13.63;7.07;;;;;;;;;;5082598;28;20035;-87
2023/08/25 06:44:59;;;;;;;7.95;5.78;;;;;;;;;;5101842;28;20027;-87
2023/08/25 06:47:27;;;;;;;14.20;6.65;;;;;;;;;;5084020;28;20028;-87
2023/08/25 06:49:53;;;;;;;14.20;6.72;;;;;;;;;;5081411;28;20112;-87
2023/08/25 06:52:19;;;;;;;7.05;6.25;;;;;;;;;;5090466;28;20456;-88
2023/08/25 06:54:45;;;;;;;7.50;5.38;;;;;;;;;;5094941;28;20028;-88
2023/08/25 06:57:14;;;;;;;10.68;5.88;;;;;;;;;;5083788;28;20484;-88
2023/08/25 06:59:40;;;;;;;11.57;5.68;;;;;;;;;;5102222;28;20184;-89
2023/08/25 07:02:07;;;;;;;9.68;5.68;;;;;;;;;;5102888;28;20115;-88
2023/08/25 07:04:33;;;;;;;8.25;5.88;;;;;;;;;;5082954;28;20090;-85
2023/08/25 07:06:59;;;;;;;14.40;5.95;;;;;;;;;;5085038;28;20032;-88
2023/08/25 07:09:26;;;;;;;13.73;5.35;;;;;;;;;;5099649;28;20488;-87
2023/08/25 07:11:52;;;;;;;7.75;5.28;;;;;;;;;;5095667;28;20617;-87
2023/08/25 07:14:18;;;;;;;7.35;5.32;;;;;;;;;;5102718;28;20027;-86
2023/08/25 07:16:46;;;;;;;7.93;5.15;;;;;;;;;;5081012;28;20039;-88
2023/08/25 07:19:14;;;;;;;11.90;5.38;;;;;;;;;;5101713;28;20411;-88
2023/08/25 07:21:40;;;;;;;7.55;5.30;;;;;;;;;;5081792;28;20058;-88
2023/08/25 07:24:06;;;;;;;6.75;4.75;;;;;;;;;;5082735;28;20036;-86
2023/08/25 07:26:32;;;;;;;15.00;5.55;;;;;;;;;;5089092;28;20883;-88
2023/08/25 07:28:58;;;;;;;10.32;5.65;;;;;;;;;;5076580;28;20052;-88
2023/08/25 07:31:24;;;;;;;7.45;4.75;;;;;;;;;;5078526;28;20025;-88
2023/08/25 07:33:49;;;;;;;9.90;5.53;;;;;;;;;;5083003;28;20028;-84
2023/08/25 07:36:17;;;;;;;10.25;5.70;;;;;;;;;;5088275;28;20020;-87
2023/08/25 07:38:43;;;;;;;6.80;4.88;;;;;;;;;;5101554;28;20024;-87
2023/08/25 07:41:11;;;;;;;10.20;5.13;;;;;;;;;;5088738;28;21714;-84
2023/08/25 07:43:37;;;;;;;10.60;4.53;;;;;;;;;;5080020;28;20032;-87
2023/08/25 07:46:04;;;;;;;6.07;4.95;;;;;;;;;;5082414;28;20580;-85
2023/08/25 07:48:32;;;;;;;9.63;4.90;;;;;;;;;;5086016;28;20020;-88
2023/08/25 07:50:58;;;;;;;6.18;4.70;;;;;;;;;;5083603;28;20092;-88
2023/08/25 07:53:26;;;;;;;10.15;5.47;;;;;;;;;;5083714;28;20973;-87
2023/08/25 07:55:52;;;;;;;11.13;5.13;;;;;;;;;;5080759;28;20356;-88
2023/08/25 07:58:19;;;;;;;6.82;4.25;;;;;;;;;;5080796;28;20031;-87
2023/08/25 08:00:47;;;;;;;7.15;4.22;;;;;;;;;;5100552;28;20073;-87
2023/08/25 08:03:14;;;;;;;10.23;5.07;;;;;;;;;;5086383;28;20019;-87
2023/08/25 08:05:40;;;;;;;6.05;4.72;;;;;;;;;;5105240;28;20020;-87
2023/08/25 08:08:09;;;;;;;9.15;4.47;;;;;;;;;;5080761;28;20045;-88
2023/08/25 08:10:35;;;;;;;8.48;5.07;;;;;;;;;;5098202;28;20106;-86
2023/08/25 08:13:02;;;;;;;9.88;5.40;;;;;;;;;;5101471;28;20531;-86
2023/08/25 08:15:28;;;;;;;7.70;5.78;;;;;;;;;;5086035;28;20030;-87
2023/08/25 08:17:54;;;;;;;9.25;5.10;;;;;;;;;;5081713;28;20025;-88
2023/08/25 08:20:21;;;;;;;7.65;5.50;;;;;;;;;;5082990;28;20048;-87
2023/08/25 08:22:47;;;;;;;7.10;5.05;;;;;;;;;;5082489;28;20476;-87
2023/08/25 08:25:14;;;;;;;32.67;8.45;;;;;;;;;;5083656;28;20043;-83
2023/08/25 08:27:41;;;;;;;99.57;12.07;;;;;;;;;;5080315;28;20024;-85
2023/08/25 08:30:07;;;;;;;21.23;7.35;;;;;;;;;;5093147;28;20024;-89
2023/08/25 08:32:37;;;;;;;40.65;9.95;;;;;;;;;;5082626;28;20047;-92
2023/08/25 08:35:07;;;;;;;22.70;10.20;;;;;;;;;;5081793;28;20024;-93
2023/08/25 08:37:33;;;;;;;36.60;12.95;;;;;;;;;;5084172;28;20032;-91
2023/08/25 08:40:00;;;;;;;21.33;12.27;;;;;;;;;;5084782;28;20150;-91
2023/08/25 08:42:27;;;;;;;71.25;19.23;;;;;;;;;;5086145;28;20106;-90
2023/08/25 08:44:54;;;;;;;38.50;16.90;;;;;;;;;;5099305;28;21690;-92
2023/08/25 08:47:20;;;;;;;36.80;16.23;;;;;;;;;;5099268;28;20023;-90
2023/08/25 08:49:46;;;;;;;48.78;19.02;;;;;;;;;;5086772;28;20036;-88
2023/08/25 08:52:12;;;;;;;70.25;22.35;;;;;;;;;;5087366;28;20130;-88
2023/08/25 08:54:39;;;;;;;57.00;20.40;;;;;;;;;;5085468;28;20024;-92
2023/08/25 08:57:05;;;;;;;51.08;19.88;;;;;;;;;;5080226;28;20103;-92
2023/08/25 08:59:31;;;;;;;77.13;22.17;;;;;;;;;;5086360;28;20043;-91
2023/08/25 09:02:00;;;;;;;39.75;20.52;;;;;;;;;;5085062;28;20036;-93
2023/08/25 09:04:28;;;;;;;48.38;22.67;;;;;;;;;;5090064;28;20024;-94
2023/08/25 09:06:55;;;;;;;49.15;24.80;;;;;;;;;;5075823;28;20028;-93
2023/08/25 09:09:23;;;;;;;36.80;22.58;;;;;;;;;;5085307;28;20028;-95
2023/08/25 09:11:49;;;;;;;39.00;21.00;;;;;;;;;;5079171;28;20078;-92
2023/08/25 09:14:28;;;;;;;31.63;20.35;;;;;;;;;;5086507;28;20019;-93
2023/08/25 09:17:00;;;;;;;33.78;20.55;;;;;;;;;;5068336;28;20024;-90
2023/08/25 09:19:30;;;;;;;31.35;19.38;;;;;;;;;;5066871;28;20088;-94
2023/08/25 09:21:56;;;;;;;27.70;17.90;;;;;;;;;;5095929;28;20124;-91
2023/08/25 09:24:22;;;;;;;23.73;16.63;;;;;;;;;;5064717;28;20067;-91
2023/08/25 09:26:51;;;;;;;30.00;15.55;;;;;;;;;;5080457;28;20419;-90
2023/08/25 09:29:17;;;;;;;26.25;15.27;;;;;;;;;;5083543;28;20114;-89
2023/08/25 09:31:44;;;;;;;25.92;13.13;;;;;;;;;;5069517;28;20020;-90
2023/08/25 09:34:13;;;;;;;17.08;11.82;;;;;;;;;;5084089;28;20107;-88
2023/08/25 09:36:57;;;;;;;17.10;11.90;;;;;;;;;;5082771;28;20019;-91
2023/08/25 09:39:23;;;;;;;15.20;9.88;;;;;;;;;;5086095;28;20034;-89
2023/08/25 09:41:49;;;;;;;16.88;10.65;;;;;;;;;;5083068;28;20046;-89
2023/08/25 09:44:16;;;;;;;19.83;11.98;;;;;;;;;;5078747;28;20433;-86
2023/08/25 09:46:43;;;;;;;17.60;11.32;;;;;;;;;;5083258;28;20024;-90
2023/08/25 09:49:09;;;;;;;17.13;11.10;;;;;;;;;;5098232;28;20024;-88
2023/08/25 09:51:40;;;;;;;15.07;10.70;;;;;;;;;;5086198;28;20051;-90
2023/08/25 09:54:16;;;;;;;20.05;12.63;;;;;;;;;;5068432;28;20460;-89
2023/08/25 09:56:46;;;;;;;20.77;12.32;;;;;;;;;;5096037;28;20055;-88
2023/08/25 09:59:13;;;;;;;16.15;11.77;;;;;;;;;;5081676;28;20012;-88
2023/08/25 10:01:41;;;;;;;18.92;12.38;;;;;;;;;;5082663;28;20612;-90
2023/08/25 10:04:07;;;;;;;21.10;12.80;;;;;;;;;;5080988;28;20039;-90
2023/08/25 10:06:34;;;;;;;15.27;12.25;;;;;;;;;;5083276;28;20184;-91
2023/08/25 10:09:00;;;;;;;19.55;12.93;;;;;;;;;;5097999;28;20024;-89
2023/08/25 10:11:34;;;;;;;17.23;12.55;;;;;;;;;;5081341;28;20024;-89
2023/08/25 10:14:05;;;;;;;22.30;14.32;;;;;;;;;;5083023;28;20107;-88
2023/08/25 10:16:32;;;;;;;21.52;14.90;;;;;;;;;;5086403;28;20035;-90
2023/08/25 10:19:01;;;;;;;24.50;14.38;;;;;;;;;;5076766;28;20457;-88
2023/08/25 10:21:27;;;;;;;17.52;13.75;;;;;;;;;;5093476;28;21723;-90
2023/08/25 10:23:56;;;;;;;38.53;15.90;;;;;;;;;;5084552;28;20036;-88
2023/08/25 10:26:22;;;;;;;77.72;20.70;;;;;;;;;;5086215;28;20036;-87
2023/08/25 10:28:49;;;;;;;32.63;17.05;;;;;;;;;;5083301;28;20043;-88
2023/08/25 10:31:17;;;;;;;28.92;15.88;;;;;;;;;;5080704;28;20032;-91
2023/08/25 10:33:53;;;;;;;23.70;14.98;;;;;;;;;;5094007;28;20032;-92
2023/08/25 10:36:20;;;;;;;24.38;14.63;;;;;;;;;;5103511;28;20111;-94
2023/08/25 10:38:55;;;;;;;23.33;15.18;;;;;;;;;;5081994;28;20031;-93
2023/08/25 10:41:23;;;;;;;21.70;14.07;;;;;;;;;;5083279;28;20020;-91
2023/08/25 10:43:53;;;;;;;18.77;13.70;;;;;;;;;;5079502;28;21667;-92
2023/08/25 10:46:20;;;;;;;20.52;13.82;;;;;;;;;;5082133;28;20751;-92
2023/08/25 10:49:01;;;;;;;28.45;15.00;;;;;;;;;;5084894;28;20024;-88
2023/08/25 10:51:27;;;;;;;23.77;13.70;;;;;;;;;;5078544;28;20031;-87
2023/08/25 10:53:54;;;;;;;44.13;18.20;;;;;;;;;;5096080;28;20035;-85
2023/08/25 10:56:23;;;;;;;28.67;13.02;;;;;;;;;;5078581;28;20533;-87
2023/08/25 10:58:56;;;;;;;36.30;13.18;;;;;;;;;;5083983;28;21857;-89
2023/08/25 11:01:46;;;;;;;30.77;14.07;;;;;;;;;;5099242;28;20436;-90
2023/08/25 11:04:14;;;;;;;22.00;13.77;;;;;;;;;;5070341;28;20036;-87
2023/08/25 11:06:43;;;;;;;19.80;12.07;;;;;;;;;;5078786;28;20103;-89
2023/08/25 11:09:10;;;;;;;25.70;13.88;;;;;;;;;;5079855;28;20020;-88
2023/08/25 11:11:37;;;;;;;26.40;14.40;;;;;;;;;;5075143;28;20119;-89
2023/08/25 11:14:03;;;;;;;32.40;17.25;;;;;;;;;;5076927;28;20042;-85
2023/08/25 11:16:30;;;;;;;33.78;16.73;;;;;;;;;;5074635;28;20080;-88
2023/08/25 11:18:56;;;;;;;31.38;16.20;;;;;;;;;;5093367;28;20023;-88
2023/08/25 11:21:25;;;;;;;36.38;18.70;;;;;;;;;;5072908;28;20028;-86
2023/08/25 11:23:54;;;;;;;36.50;19.17;;;;;;;;;;5089685;28;20036;-85
2023/08/25 11:26:23;;;;;;;32.95;18.95;;;;;;;;;;5074345;28;20028;-88
2023/08/25 11:28:50;;;;;;;34.45;19.52;;;;;;;;;;5068345;28;20129;-88
2023/08/25 11:31:19;;;;;;;35.70;19.20;;;;;;;;;;5086321;28;20020;-85
2023/08/25 11:33:45;;;;;;;34.22;18.02;;;;;;;;;;5093249;28;20186;-89
2023/08/25 11:36:16;;;;;;;26.70;16.40;;;;;;;;;;5078225;28;20100;-86
2023/08/25 11:38:42;;;;;;;27.63;15.52;;;;;;;;;;5079958;28;20061;-86
2023/08/25 11:41:10;;;;;;;22.42;14.68;;;;;;;;;;5099016;28;20016;-85
2023/08/25 11:43:36;;;;;;;28.58;16.08;;;;;;;;;;5071487;28;20112;-88
2023/08/25 11:46:06;;;;;;;21.80;14.80;;;;;;;;;;5078451;28;20028;-88
2023/08/25 11:48:35;;;;;;;27.73;16.02;;;;;;;;;;5097000;28;20023;-88
2023/08/25 11:51:04;;;;;;;26.80;14.57;;;;;;;;;;5080669;28;20020;-89
2023/08/25 11:53:31;;;;;;;27.73;16.90;;;;;;;;;;5100616;28;20039;-84
2023/08/25 11:55:58;;;;;;;30.13;17.55;;;;;;;;;;5084444;28;20022;-89
2023/08/25 11:58:28;;;;;;;36.67;21.02;;;;;;;;;;5075521;28;20110;-85
2023/08/25 12:00:59;;;;;;;33.30;20.08;;;;;;;;;;5099424;28;20750;-89
2023/08/25 12:03:24;;;;;;;37.65;20.25;;;;;;;;;;5082749;28;20028;-89
2023/08/25 12:05:51;;;;;;;34.83;20.85;;;;;;;;;;5078916;28;20028;-86
2023/08/25 12:08:17;;;;;;;27.48;18.80;;;;;;;;;;5095934;28;20028;-89
2023/08/25 12:10:43;;;;;;;22.70;15.57;;;;;;;;;;5094966;28;20110;-89
2023/08/25 12:13:09;;;;;;;23.45;14.30;;;;;;;;;;5096271;28;20020;-88
2023/08/25 12:15:40;;;;;;;23.67;13.63;;;;;;;;;;5097191;28;20140;-84
2023/08/25 12:18:06;;;;;;;22.05;14.25;;;;;;;;;;5097735;28;20051;-87
2023/08/25 12:20:32;;;;;;;22.00;14.93;;;;;;;;;;5098680;28;20031;-87
2023/08/25 12:23:00;;;;;;;19.65;16.08;;;;;;;;;;5078501;28;20082;-85
2023/08/25 12:25:26;;;;;;;22.02;15.35;;;;;;;;;;5095958;28;21716;-89
2023/08/25 12:27:55;;;;;;;23.08;16.98;;;;;;;;;;5080119;28;20062;-86
2023/08/25 12:30:21;;;;;;;25.95;16.85;;;;;;;;;;5098497;28;20043;-88
2023/08/25 12:32:47;;;;;;;22.88;17.67;;;;;;;;;;5078941;28;20073;-88
2023/08/25 12:35:13;;;;;;;20.35;17.23;;;;;;;;;;5096004;28;20032;-88
2023/08/25 12:37:39;;;;;;;23.63;17.15;;;;;;;;;;5096557;28;20043;-89
2023/08/25 12:40:05;;;;;;;23.40;16.60;;;;;;;;;;5077289;28;20024;-89
2023/08/25 12:42:32;;;;;;;19.42;14.63;;;;;;;;;;5096914;28;20036;-88
2023/08/25 12:44:58;;;;;;;16.17;14.35;;;;;;;;;;5093668;28;20059;-87
2023/08/25 12:47:24;;;;;;;17.02;13.98;;;;;;;;;;5096428;28;20047;-89
2023/08/25 12:49:50;;;;;;;18.95;14.70;;;;;;;;;;5094897;28;20103;-88
2023/08/25 12:52:16;;;;;;;22.80;15.60;;;;;;;;;;5074827;28;20158;-86
2023/08/25 12:54:46;;;;;;;19.50;15.07;;;;;;;;;;5077772;28;20231;-88
2023/08/25 12:57:12;;;;;;;18.98;14.35;;;;;;;;;;5091880;28;20051;-88
2023/08/25 12:59:41;;;;;;;20.77;14.40;;;;;;;;;;5076384;28;20118;-87
2023/08/25 13:02:10;;;;;;;17.98;13.63;;;;;;;;;;5074675;28;20082;-90
2023/08/25 13:04:36;;;;;;;18.17;15.02;;;;;;;;;;5096979;28;20024;-87
2023/08/25 13:07:02;;;;;;;16.75;13.80;;;;;;;;;;5075017;28;20039;-86
2023/08/25 13:09:29;;;;;;;18.50;14.63;;;;;;;;;;5076740;28;20031;-84
2023/08/25 13:11:55;;;;;;;17.45;14.40;;;;;;;;;;5067451;28;20028;-90
2023/08/25 13:14:25;;;;;;;15.90;13.80;;;;;;;;;;5076652;28;20017;-88
2023/08/25 13:16:53;;;;;;;18.70;14.63;;;;;;;;;;5092152;28;20016;-85
2023/08/25 13:19:22;;;;;;;17.23;13.32;;;;;;;;;;5077561;28;21716;-89
2023/08/25 13:21:50;;;;;;;15.00;12.93;;;;;;;;;;5090933;28;20036;-86
2023/08/25 13:24:16;;;;;;;17.23;12.70;;;;;;;;;;5091354;28;20121;-88
2023/08/25 13:26:42;;;;;;;13.48;11.60;;;;;;;;;;5074636;28;20031;-84
2023/08/25 13:29:09;;;;;;;14.93;12.65;;;;;;;;;;5075750;28;20024;-86
2023/08/25 13:31:35;;;;;;;16.55;11.57;;;;;;;;;;5090110;28;20107;-87
2023/08/25 13:34:03;;;;;;;15.23;12.63;;;;;;;;;;5092010;28;20131;-85
2023/08/25 13:36:29;;;;;;;13.25;11.63;;;;;;;;;;5092508;28;20028;-87
2023/08/25 13:38:55;;;;;;;18.80;12.02;;;;;;;;;;5073756;28;20024;-84
2023/08/25 13:41:21;;;;;;;15.77;12.48;;;;;;;;;;5090251;28;20042;-86
2023/08/25 13:43:47;;;;;;;13.63;10.13;;;;;;;;;;5072423;28;20028;-87
2023/08/25 13:46:13;;;;;;;13.90;9.88;;;;;;;;;;5071820;28;20036;-85
2023/08/25 13:48:39;;;;;;;8.65;7.75;;;;;;;;;;5072938;28;20027;-87
2023/08/25 13:51:05;;;;;;;10.90;6.90;;;;;;;;;;5088648;28;20056;-88
2023/08/25 13:53:31;;;;;;;9.93;5.43;;;;;;;;;;5089699;28;20028;-86
2023/08/25 13:55:57;;;;;;;7.13;5.55;;;;;;;;;;5091019;28;20032;-87
2023/08/25 13:58:23;;;;;;;5.10;4.50;;;;;;;;;;5090812;28;20029;-85
2023/08/25 14:00:49;;;;;;;6.03;4.93;;;;;;;;;;5072826;28;20043;-87
2023/08/25 14:03:15;;;;;;;7.85;6.28;;;;;;;;;;5072946;28;20028;-87
2023/08/25 14:05:41;;;;;;;8.95;4.90;;;;;;;;;;5081096;28;20366;-84
2023/08/25 14:08:09;;;;;;;7.43;5.40;;;;;;;;;;5091523;28;20042;-88
2023/08/25 14:10:35;;;;;;;7.72;4.63;;;;;;;;;;5071818;28;20024;-83
2023/08/25 14:13:01;;;;;;;7.93;4.70;;;;;;;;;;5074608;28;20094;-87
2023/08/25 14:15:27;;;;;;;5.90;5.13;;;;;;;;;;5071315;28;20087;-87
2023/08/25 14:17:53;;;;;;;8.13;4.97;;;;;;;;;;5079927;28;20122;-85
2023/08/25 14:20:19;;;;;;;7.97;5.00;;;;;;;;;;5089778;28;20036;-87
2023/08/25 14:22:47;;;;;;;7.78;5.15;;;;;;;;;;5070873;28;20035;-84
2023/08/25 14:25:13;;;;;;;6.85;4.80;;;;;;;;;;5089181;28;20108;-88
2023/08/25 14:27:39;;;;;;;7.03;4.85;;;;;;;;;;5091302;28;20032;-88
2023/08/25 14:30:08;;;;;;;11.07;5.50;;;;;;;;;;5071752;28;20042;-86
2023/08/25 14:32:34;;;;;;;7.38;5.32;;;;;;;;;;5087770;28;20028;-87